Portada
METAR-TAF:

METAR-TAF

Aeropuertos :

Batesville, Arkansas, Estados Unidos

latitud: 35-44N, longitud: 091-39W, altitud: 141 m

Observación

El informe se hizo hace 35 minutos, a las 19:56 UTC
Viento 5 kt con dirección variable
Temperatura 31°C
Humedad 49%
Presión 1015 hPa
Visibilidad: 16.1 km
Cielo despejado

METAR: KBVX 031956Z AUTO VRB05KT 10SM CLR 31/19 A2997 RMK AO2 SLP143 T03060189

Hora: 15:31 (20:31 UTC)


TAF: falta

Observaciones y pronósticos meteorológicos de más de 4000 aeropuertos (mensajes METAR y TAF).

Los puntos amarillos y rojos representan las estaciones disponibles.

Ponga el ratón en el punto deseado para ver el nombre de la estación.

Haga clic para ver las observaciones y los pronósticos meteorológicos.

Para cambiar el mapa : haga clic en los botones verdes con una cruz de color negro para hacer un zoom, en el botón verde con un guión para alejar o en las flechas verdes para mapas adyacentes.


METAR-TAF: